createdAt,value
2023-06-14T00:00:15.051Z,69.42
2023-06-14T00:02:44.255Z,69.67
2023-06-14T00:05:14.052Z,70.58
2023-06-14T00:07:50.399Z,70.77
2023-06-14T00:10:19.560Z,70.88
2023-06-14T00:12:48.265Z,70.45
2023-06-14T00:15:17.155Z,70.84
2023-06-14T00:17:49.382Z,70.84
2023-06-14T00:20:18.744Z,70.34
2023-06-14T00:22:47.785Z,70.98
2023-06-14T00:25:28.535Z,71.21
2023-06-14T00:27:59.632Z,71.08
2023-06-14T00:30:32.584Z,70.57
2023-06-14T00:33:01.795Z,70.17
2023-06-14T00:35:30.637Z,70.58
2023-06-14T00:37:59.612Z,70.88
2023-06-14T00:40:28.344Z,70.61
2023-06-14T00:42:57.225Z,70.58
2023-06-14T00:45:25.846Z,70.85
2023-06-14T00:47:57.624Z,70.51
2023-06-14T00:50:26.913Z,70.72
2023-06-14T00:52:55.828Z,71.37
2023-06-14T00:55:26.798Z,72.02
2023-06-14T00:57:57.984Z,72.05
2023-06-14T01:00:27.081Z,72.58
2023-06-14T01:02:57.355Z,72.94
2023-06-14T01:05:27.494Z,73.04
2023-06-14T01:08:23.272Z,72.12
2023-06-14T01:11:06.359Z,71.80
2023-06-14T01:13:38.626Z,71.79
2023-06-14T01:16:10.177Z,70.90
2023-06-14T01:18:39.530Z,70.71
2023-06-14T01:21:08.217Z,70.57
2023-06-14T01:23:37.075Z,70.57
2023-06-14T01:26:06.922Z,70.93
2023-06-14T01:28:37.671Z,70.71
2023-06-14T01:31:08.326Z,69.75
2023-06-14T01:33:38.637Z,69.49
2023-06-14T01:36:10.438Z,68.58
2023-06-14T01:38:40.209Z,68.43
2023-06-14T01:41:09.169Z,67.99
2023-06-14T01:43:39.461Z,67.79
2023-06-14T01:46:10.484Z,67.03
2023-06-14T01:48:39.851Z,66.64
2023-06-14T01:51:08.543Z,66.07
2023-06-14T01:53:38.226Z,65.98
2023-06-14T01:56:07.207Z,65.34
2023-06-14T01:58:36.027Z,65.94
2023-06-14T02:01:04.952Z,65.70
2023-06-14T02:03:34.544Z,65.08
2023-06-14T02:06:03.768Z,65.05
2023-06-14T02:08:33.074Z,64.93
2023-06-14T02:11:02.795Z,64.79
2023-06-14T02:13:31.720Z,65.13
2023-06-14T02:16:01.827Z,65.85
2023-06-14T02:18:30.925Z,66.39
2023-06-14T02:20:59.672Z,66.04
2023-06-14T02:23:28.840Z,65.52
2023-06-14T02:25:58.346Z,65.53
2023-06-14T02:28:28.861Z,65.73
2023-06-14T02:30:57.885Z,65.49
2023-06-14T02:33:27.237Z,64.99
2023-06-14T02:35:56.270Z,64.31
2023-06-14T02:38:24.926Z,64.58
2023-06-14T02:40:53.930Z,64.53
2023-06-14T02:43:22.720Z,62.50
2023-06-14T02:45:51.897Z,62.75
2023-06-14T02:48:20.640Z,63.58
2023-06-14T02:50:49.986Z,62.39
2023-06-14T02:53:19.185Z,61.49
2023-06-14T02:55:48.913Z,63.13
2023-06-14T02:58:18.284Z,61.51
2023-06-14T03:00:47.370Z,61.68
2023-06-14T03:03:18.178Z,60.94
2023-06-14T03:05:56.611Z,60.89
2023-06-14T03:08:31.047Z,61.93
2023-06-14T03:11:04.189Z,60.93
2023-06-14T03:13:35.841Z,60.91
2023-06-14T03:16:06.758Z,60.63
2023-06-14T03:18:39.816Z,60.25
2023-06-14T03:21:10.858Z,59.39
2023-06-14T03:23:44.302Z,60.38
2023-06-14T03:26:19.707Z,60.70
2023-06-14T03:28:54.305Z,60.84
2023-06-14T03:31:25.828Z,60.89
2023-06-14T03:33:55.476Z,59.69
2023-06-14T03:36:24.874Z,59.96
2023-06-14T03:38:53.731Z,59.73
2023-06-14T03:41:22.590Z,60.51
2023-06-14T03:43:53.044Z,58.92
2023-06-14T03:46:21.886Z,59.18
2023-06-14T03:48:51.198Z,58.52
2023-06-14T03:51:20.830Z,59.20
2023-06-14T03:54:06.039Z,58.63
2023-06-14T03:56:39.671Z,58.06
2023-06-14T03:59:11.504Z,57.04
2023-06-14T04:01:47.932Z,56.06
2023-06-14T04:04:18.690Z,55.32
2023-06-14T04:06:50.149Z,56.08
2023-06-14T04:09:20.896Z,55.39
2023-06-14T04:11:49.653Z,55.21
2023-06-14T04:14:18.315Z,53.53
2023-06-14T04:16:48.716Z,53.35
2023-06-14T04:19:19.730Z,53.42
2023-06-14T04:21:48.640Z,52.82
2023-06-14T04:24:19.032Z,52.57
2023-06-14T04:26:53.718Z,52.43
2023-06-14T04:29:23.328Z,52.73
2023-06-14T04:32:04.134Z,53.02
2023-06-14T04:34:34.712Z,51.64
2023-06-14T04:37:04.284Z,52.33
2023-06-14T04:39:36.859Z,50.64
2023-06-14T04:42:06.781Z,52.15
2023-06-14T04:44:36.762Z,51.94
2023-06-14T04:47:08.802Z,51.71
2023-06-14T04:49:38.163Z,50.69
2023-06-14T04:52:07.593Z,51.07
2023-06-14T04:54:41.312Z,52.72
2023-06-14T04:57:16.270Z,49.20
2023-06-14T04:59:47.755Z,51.14
2023-06-14T05:02:16.878Z,50.80
2023-06-14T05:04:45.628Z,48.56
2023-06-14T05:07:16.124Z,49.92
2023-06-14T05:09:48.599Z,49.11
2023-06-14T05:12:21.529Z,48.80
2023-06-14T05:14:52.239Z,49.15
2023-06-14T05:17:23.216Z,47.42
2023-06-14T05:19:52.584Z,47.12
2023-06-14T05:22:21.370Z,47.24
2023-06-14T05:24:50.802Z,46.46
2023-06-14T05:27:19.516Z,46.17
2023-06-14T05:29:48.448Z,45.88
2023-06-14T05:32:17.190Z,45.91
2023-06-14T05:34:46.595Z,46.50
2023-06-14T05:37:15.397Z,44.21
2023-06-14T05:39:44.462Z,45.17
2023-06-14T05:42:13.424Z,45.19
2023-06-14T05:44:42.667Z,44.25
2023-06-14T05:47:13.795Z,44.11
2023-06-14T05:49:43.629Z,43.93
2023-06-14T05:52:13.702Z,44.00
2023-06-14T05:54:43.359Z,43.46
2023-06-14T05:57:13.977Z,42.94
2023-06-14T06:00:08.006Z,43.14
2023-06-14T06:02:41.023Z,43.02
2023-06-14T06:05:10.598Z,42.63
2023-06-14T06:07:39.955Z,43.06
2023-06-14T06:10:09.894Z,41.94
2023-06-14T06:12:38.778Z,41.44
2023-06-14T06:15:11.542Z,41.32
2023-06-14T06:17:54.870Z,40.58
2023-06-14T06:20:33.598Z,40.87
2023-06-14T06:23:02.982Z,40.79
2023-06-14T06:25:34.366Z,40.30
2023-06-14T06:28:07.138Z,40.71
2023-06-14T06:30:38.037Z,40.30
2023-06-14T06:33:07.982Z,40.71
2023-06-14T06:35:37.098Z,39.94
2023-06-14T06:38:17.055Z,38.95
2023-06-14T06:41:07.800Z,38.60
2023-06-14T06:43:38.029Z,39.44
2023-06-14T06:46:22.181Z,38.70
2023-06-14T06:48:51.962Z,38.40
2023-06-14T06:51:21.013Z,38.16
2023-06-14T06:53:56.089Z,37.23
2023-06-14T06:56:26.324Z,38.11
2023-06-14T06:58:55.520Z,37.95
2023-06-14T07:01:26.392Z,37.99
2023-06-14T07:03:55.623Z,37.96
2023-06-14T07:06:26.650Z,37.71
2023-06-14T07:09:03.353Z,36.95
2023-06-14T07:11:34.682Z,36.53
2023-06-14T07:14:03.927Z,36.51
2023-06-14T07:16:32.992Z,36.12
2023-06-14T07:19:04.249Z,36.92
2023-06-14T07:21:33.816Z,37.61
2023-06-14T07:24:02.594Z,37.34
2023-06-14T07:26:31.905Z,38.20
2023-06-14T07:29:00.601Z,37.64
2023-06-14T07:31:33.516Z,37.34
2023-06-14T07:34:04.167Z,37.68
2023-06-14T07:36:33.220Z,37.60
2023-06-14T07:39:05.495Z,36.91
2023-06-14T07:41:35.556Z,37.34
2023-06-14T07:44:05.686Z,36.92
2023-06-14T07:46:36.705Z,37.13
2023-06-14T07:49:09.233Z,37.44
2023-06-14T07:51:38.446Z,38.57
2023-06-14T07:54:09.195Z,37.93
2023-06-14T07:56:38.400Z,38.06
2023-06-14T07:59:08.736Z,38.34
2023-06-14T08:01:38.117Z,37.17
2023-06-14T08:04:07.113Z,37.74
2023-06-14T08:06:36.153Z,37.13
2023-06-14T08:09:04.944Z,37.41
2023-06-14T08:11:35.556Z,37.27
2023-06-14T08:14:05.817Z,37.63
2023-06-14T08:16:35.063Z,36.94
2023-06-14T08:19:04.707Z,36.94
2023-06-14T08:21:35.420Z,37.31
2023-06-14T08:24:05.843Z,37.37
2023-06-14T08:26:35.261Z,37.04
2023-06-14T08:29:11.457Z,38.42
2023-06-14T08:31:40.613Z,39.50
2023-06-14T08:34:09.686Z,39.24
2023-06-14T08:36:38.957Z,39.05
2023-06-14T08:39:08.100Z,38.56
2023-06-14T08:41:38.344Z,38.72
2023-06-14T08:44:09.479Z,37.58
2023-06-14T08:46:39.509Z,38.29
2023-06-14T08:49:10.757Z,38.95
2023-06-14T08:51:42.530Z,37.80
2023-06-14T08:54:12.648Z,38.63
2023-06-14T08:56:43.542Z,37.98
2023-06-14T08:59:13.593Z,38.42
2023-06-14T09:01:49.295Z,38.89
2023-06-14T09:04:31.606Z,38.78
2023-06-14T09:07:01.167Z,37.36
2023-06-14T09:09:29.863Z,37.86
2023-06-14T09:12:08.590Z,39.87
2023-06-14T09:14:40.383Z,40.67
2023-06-14T09:17:09.476Z,40.41
2023-06-14T09:19:38.312Z,39.33
2023-06-14T09:22:09.742Z,40.39
2023-06-14T09:24:39.749Z,39.87
2023-06-14T09:27:08.621Z,39.97
2023-06-14T09:29:38.895Z,40.40
2023-06-14T09:32:08.605Z,40.22
2023-06-14T09:34:38.220Z,40.53
2023-06-14T09:37:07.532Z,40.14
2023-06-14T09:39:37.778Z,41.21
2023-06-14T09:42:22.705Z,40.53
2023-06-14T09:44:54.118Z,39.45
2023-06-14T09:47:25.976Z,39.99
2023-06-14T09:49:57.240Z,39.80
2023-06-14T09:52:28.885Z,40.15
2023-06-14T09:54:58.260Z,40.31
2023-06-14T09:57:31.304Z,39.34
2023-06-14T10:00:04.339Z,38.62
2023-06-14T10:02:44.787Z,38.92
2023-06-14T10:05:18.518Z,39.18
2023-06-14T10:08:17.753Z,38.63
2023-06-14T10:10:47.990Z,39.62
2023-06-14T10:13:18.770Z,38.60
2023-06-14T10:16:02.760Z,39.15
2023-06-14T10:18:46.397Z,39.49
2023-06-14T10:21:57.886Z,40.36
2023-06-14T10:24:47.234Z,39.05
2023-06-14T10:27:33.375Z,39.50
2023-06-14T10:30:12.536Z,39.18
2023-06-14T10:33:12.906Z,39.51
2023-06-14T10:35:42.657Z,40.59
2023-06-14T10:38:18.414Z,40.66
2023-06-14T10:40:56.702Z,41.01
2023-06-14T10:43:26.572Z,41.34
2023-06-14T10:46:25.226Z,40.94
2023-06-14T10:49:01.161Z,40.29
2023-06-14T10:51:47.174Z,41.24
2023-06-14T10:54:16.349Z,41.97
2023-06-14T10:56:51.991Z,42.57
2023-06-14T10:59:22.371Z,42.95
2023-06-14T11:02:00.300Z,43.91
2023-06-14T11:04:48.928Z,44.63
2023-06-14T11:07:48.918Z,45.11
2023-06-14T11:10:39.724Z,47.41
2023-06-14T11:13:14.877Z,47.38
2023-06-14T11:16:00.392Z,45.48
2023-06-14T11:18:31.271Z,46.69
2023-06-14T11:21:00.310Z,47.98
2023-06-14T11:23:29.061Z,48.99
2023-06-14T11:25:59.872Z,49.25
2023-06-14T11:28:39.907Z,46.94
2023-06-14T11:31:12.207Z,46.35
2023-06-14T11:33:41.551Z,46.37
2023-06-14T11:36:10.759Z,47.15
2023-06-14T11:38:39.947Z,50.29
2023-06-14T11:41:09.184Z,51.52
2023-06-14T11:43:39.409Z,55.79
2023-06-14T11:46:17.287Z,55.58
2023-06-14T11:48:47.372Z,55.51
2023-06-14T11:51:35.139Z,54.89
2023-06-14T11:54:06.003Z,55.67
2023-06-14T11:56:34.821Z,54.19
2023-06-14T11:59:07.685Z,54.26
2023-06-14T12:01:43.220Z,54.32
2023-06-14T12:04:17.046Z,54.74
2023-06-14T12:06:45.959Z,51.87
2023-06-14T12:09:19.479Z,51.58
2023-06-14T12:11:48.452Z,51.56
2023-06-14T12:14:17.426Z,49.94
2023-06-14T12:16:46.654Z,51.06
2023-06-14T12:19:17.540Z,50.08
2023-06-14T12:21:53.074Z,50.02
2023-06-14T12:24:22.046Z,50.29
2023-06-14T12:26:50.675Z,49.32
2023-06-14T12:29:21.763Z,48.02
2023-06-14T12:31:50.512Z,48.38
2023-06-14T12:34:19.259Z,48.16
2023-06-14T12:36:48.559Z,49.03
2023-06-14T12:39:17.237Z,47.96
2023-06-14T12:41:46.094Z,48.94
2023-06-14T12:44:15.609Z,47.20
2023-06-14T12:46:45.726Z,50.09
2023-06-14T12:49:15.745Z,48.41
2023-06-14T12:51:44.409Z,48.78
2023-06-14T12:54:15.850Z,47.18
2023-06-14T12:56:47.659Z,48.13
2023-06-14T12:59:16.311Z,48.49
2023-06-14T13:01:46.936Z,48.86
2023-06-14T13:04:16.022Z,48.76
2023-06-14T13:06:44.689Z,47.70
2023-06-14T13:09:14.841Z,47.11
2023-06-14T13:11:47.847Z,47.79
2023-06-14T13:14:25.552Z,46.93
2023-06-14T13:16:55.358Z,46.93
2023-06-14T13:19:24.249Z,47.09
2023-06-14T13:21:53.041Z,46.85
2023-06-14T13:24:21.767Z,46.41
2023-06-14T13:26:50.625Z,47.88
2023-06-14T13:29:19.254Z,47.71
2023-06-14T13:31:48.564Z,46.09
2023-06-14T13:34:17.228Z,46.09
2023-06-14T13:36:46.078Z,45.78
2023-06-14T13:39:14.687Z,46.09
2023-06-14T13:41:43.466Z,45.90
2023-06-14T13:44:17.178Z,45.97
2023-06-14T13:46:47.129Z,45.89
2023-06-14T13:49:15.746Z,46.21
2023-06-14T13:51:45.548Z,46.85
2023-06-14T13:54:17.528Z,45.88
2023-06-14T13:56:46.673Z,45.64
2023-06-14T13:59:15.593Z,46.29
2023-06-14T14:01:44.383Z,46.80
2023-06-14T14:04:13.530Z,45.13
2023-06-14T14:06:42.330Z,45.25
2023-06-14T14:09:11.584Z,45.76
2023-06-14T14:11:41.865Z,46.54
2023-06-14T14:14:11.974Z,46.19
2023-06-14T14:16:40.611Z,45.99
2023-06-14T14:19:09.717Z,46.56
2023-06-14T14:21:38.370Z,45.77
2023-06-14T14:24:07.703Z,46.50
2023-06-14T14:26:36.431Z,46.77
2023-06-14T14:29:05.258Z,47.28
2023-06-14T14:31:34.246Z,48.08
2023-06-14T14:34:03.131Z,48.13
2023-06-14T14:36:31.744Z,50.77
2023-06-14T14:39:00.558Z,52.60
2023-06-14T14:41:30.356Z,53.83
2023-06-14T14:44:00.503Z,53.29
2023-06-14T14:46:30.459Z,53.23
2023-06-14T14:48:59.179Z,52.93
2023-06-14T14:51:28.099Z,54.12
2023-06-14T14:53:56.856Z,53.76
2023-06-14T14:56:25.887Z,54.64
2023-06-14T14:58:54.853Z,54.42
2023-06-14T15:01:23.787Z,54.20
2023-06-14T15:03:59.169Z,53.48
2023-06-14T15:06:28.904Z,51.42
2023-06-14T15:08:57.907Z,49.98
2023-06-14T15:11:27.672Z,48.80
2023-06-14T15:13:56.892Z,49.29
2023-06-14T15:16:26.032Z,48.76
2023-06-14T15:18:57.612Z,48.13
2023-06-14T15:21:26.585Z,48.07
2023-06-14T15:23:55.225Z,48.27
2023-06-14T15:26:27.596Z,47.71
2023-06-14T15:28:56.449Z,47.77
2023-06-14T15:31:29.963Z,47.42
2023-06-14T15:33:58.961Z,47.02
2023-06-14T15:36:27.755Z,47.28
2023-06-14T15:38:56.786Z,48.00
2023-06-14T15:41:25.417Z,47.84
2023-06-14T15:43:54.230Z,47.03
2023-06-14T15:46:24.760Z,47.94
2023-06-14T15:48:53.604Z,47.60
2023-06-14T15:51:22.929Z,48.26
2023-06-14T15:53:51.947Z,48.24
2023-06-14T15:56:20.655Z,48.78
2023-06-14T15:58:52.590Z,49.46
2023-06-14T16:01:21.325Z,49.79
2023-06-14T16:03:50.080Z,49.91
2023-06-14T16:06:18.975Z,51.60
2023-06-14T16:08:47.881Z,52.74
2023-06-14T16:11:17.124Z,53.76
2023-06-14T16:13:45.824Z,54.04
2023-06-14T16:16:15.301Z,54.80
2023-06-14T16:18:44.181Z,54.98
2023-06-14T16:21:13.679Z,55.41
2023-06-14T16:23:42.741Z,55.35
2023-06-14T16:26:14.546Z,56.60
2023-06-14T16:28:46.661Z,56.41
2023-06-14T16:31:23.990Z,56.84
2023-06-14T16:33:56.346Z,56.64
2023-06-14T16:36:25.238Z,55.82
2023-06-14T16:38:53.897Z,56.54
2023-06-14T16:41:22.718Z,56.30
2023-06-14T16:43:51.352Z,56.09
2023-06-14T16:46:31.961Z,55.42
2023-06-14T16:49:02.454Z,55.54
2023-06-14T16:51:31.271Z,54.24
2023-06-14T16:54:00.257Z,53.34
2023-06-14T16:56:29.574Z,52.61
2023-06-14T16:58:59.686Z,51.95
2023-06-14T17:01:28.880Z,51.34
2023-06-14T17:03:57.624Z,50.49
2023-06-14T17:06:26.601Z,50.11
2023-06-14T17:08:55.250Z,49.83
2023-06-14T17:11:24.605Z,49.69
2023-06-14T17:13:53.910Z,48.78
2023-06-14T17:16:23.237Z,48.95
2023-06-14T17:18:52.848Z,48.61
2023-06-14T17:21:21.604Z,48.06
2023-06-14T17:23:50.238Z,47.74
2023-06-14T17:26:19.271Z,47.51
2023-06-14T17:28:47.906Z,47.80
2023-06-14T17:31:17.057Z,47.22
2023-06-14T17:33:45.840Z,47.89
2023-06-14T17:36:14.700Z,48.53
2023-06-14T17:38:43.401Z,48.02
2023-06-14T17:41:12.259Z,47.55
2023-06-14T17:43:40.980Z,46.43
2023-06-14T17:46:10.185Z,46.64
2023-06-14T17:48:38.836Z,46.79
2023-06-14T17:51:08.594Z,45.30
2023-06-14T17:53:37.312Z,45.02
2023-06-14T17:56:06.443Z,44.56
2023-06-14T17:58:35.542Z,44.83
2023-06-14T18:01:04.664Z,45.06
2023-06-14T18:03:33.460Z,45.85
2023-06-14T18:06:02.694Z,47.70
2023-06-14T18:08:31.487Z,49.30
2023-06-14T18:11:00.230Z,49.90
2023-06-14T18:13:28.893Z,50.14
2023-06-14T18:15:57.811Z,50.94
2023-06-14T18:18:26.529Z,52.66
2023-06-14T18:20:55.346Z,54.83
2023-06-14T18:23:23.977Z,55.51
2023-06-14T18:25:52.830Z,56.17
2023-06-14T18:28:21.656Z,57.16
2023-06-14T18:30:50.767Z,57.84
2023-06-14T18:33:19.343Z,57.99
2023-06-14T18:35:48.103Z,58.00
2023-06-14T18:38:16.953Z,57.69
2023-06-14T18:40:45.877Z,57.01
2023-06-14T18:43:14.431Z,56.69
2023-06-14T18:45:43.268Z,56.09
2023-06-14T18:48:13.931Z,55.49
2023-06-14T18:50:42.808Z,54.67
2023-06-14T18:53:13.904Z,54.72
2023-06-14T18:55:45.592Z,53.14
2023-06-14T18:58:14.753Z,52.90
2023-06-14T19:00:43.416Z,52.76
2023-06-14T19:03:12.501Z,52.16
2023-06-14T19:05:41.821Z,52.44
2023-06-14T19:08:14.089Z,52.18
2023-06-14T19:10:42.870Z,52.34
2023-06-14T19:13:12.966Z,52.71
2023-06-14T19:15:41.952Z,52.91
2023-06-14T19:18:12.787Z,52.53
2023-06-14T19:20:41.691Z,52.70
2023-06-14T19:23:10.362Z,52.05
2023-06-14T19:25:39.329Z,51.91
2023-06-14T19:28:08.091Z,52.33
2023-06-14T19:30:38.052Z,51.35
2023-06-14T19:33:06.880Z,51.06
2023-06-14T19:35:35.719Z,50.41
2023-06-14T19:38:04.551Z,50.15
2023-06-14T19:40:34.056Z,48.60
2023-06-14T19:43:02.643Z,48.95
2023-06-14T19:45:33.872Z,48.57
2023-06-14T19:48:11.333Z,48.42
2023-06-14T19:50:48.448Z,48.85
2023-06-14T19:53:17.681Z,48.98
2023-06-14T19:55:46.846Z,48.99
2023-06-14T19:58:15.564Z,49.26
2023-06-14T20:00:44.532Z,49.30
2023-06-14T20:03:14.593Z,50.74
2023-06-14T20:05:47.491Z,51.14
2023-06-14T20:08:22.853Z,51.19
2023-06-14T20:10:55.161Z,51.94
2023-06-14T20:13:25.217Z,52.65
2023-06-14T20:15:57.909Z,53.07
2023-06-14T20:18:28.415Z,53.05
2023-06-14T20:20:58.735Z,56.80
2023-06-14T20:23:28.946Z,59.30
2023-06-14T20:25:58.863Z,60.73
2023-06-14T20:28:28.509Z,60.01
2023-06-14T20:30:59.113Z,60.07
2023-06-14T20:33:29.830Z,61.29
2023-06-14T20:35:59.639Z,65.90
2023-06-14T20:38:29.809Z,71.18
2023-06-14T20:40:59.885Z,73.16
2023-06-14T20:43:30.575Z,75.16
2023-06-14T20:46:00.419Z,76.99
2023-06-14T20:48:31.620Z,78.71
2023-06-14T20:51:01.955Z,78.22
2023-06-14T20:53:32.690Z,82.02
2023-06-14T20:56:03.040Z,90.03
2023-06-14T20:58:33.222Z,90.30
2023-06-14T21:01:03.999Z,94.17
2023-06-14T21:03:34.724Z,97.22
2023-06-14T21:06:07.890Z,98.52
2023-06-14T21:08:38.978Z,100.00
2023-06-14T21:11:09.704Z,100.00
2023-06-14T21:13:39.616Z,100.00
2023-06-14T21:16:09.262Z,100.00
2023-06-14T21:18:39.451Z,100.00
2023-06-14T21:21:09.317Z,100.00
2023-06-14T21:23:39.325Z,100.00
2023-06-14T21:26:09.461Z,100.00
2023-06-14T21:28:40.188Z,100.00
2023-06-14T21:31:11.284Z,100.00
2023-06-14T21:33:41.078Z,100.00
2023-06-14T21:36:13.465Z,100.00
2023-06-14T21:38:43.830Z,100.00
2023-06-14T21:41:14.625Z,100.00
2023-06-14T21:43:44.919Z,100.00
2023-06-14T21:46:15.090Z,100.00
2023-06-14T21:48:45.080Z,100.00
2023-06-14T21:51:14.960Z,100.00
2023-06-14T21:53:49.873Z,100.00
2023-06-14T21:56:20.998Z,100.00
2023-06-14T21:58:51.418Z,100.00
2023-06-14T22:01:21.340Z,100.00
2023-06-14T22:03:51.574Z,100.00
2023-06-14T22:06:21.859Z,100.00
2023-06-14T22:08:52.140Z,100.00
2023-06-14T22:11:23.430Z,100.00
2023-06-14T22:13:54.414Z,100.00
2023-06-14T22:16:27.702Z,100.00
2023-06-14T22:19:00.493Z,100.00
2023-06-14T22:21:31.311Z,100.00
2023-06-14T22:24:02.827Z,100.00
2023-06-14T22:26:40.331Z,100.00
2023-06-14T22:29:09.997Z,100.00
2023-06-14T22:31:38.746Z,100.00
2023-06-14T22:34:09.394Z,100.00
2023-06-14T22:36:39.648Z,100.00
2023-06-14T22:39:10.170Z,100.00
2023-06-14T22:41:39.530Z,100.00
2023-06-14T22:44:08.547Z,100.00
2023-06-14T22:46:37.865Z,100.00
2023-06-14T22:49:07.961Z,100.00
2023-06-14T22:51:37.862Z,100.00
2023-06-14T22:54:07.667Z,100.00
2023-06-14T22:56:36.897Z,100.00
2023-06-14T22:59:05.789Z,100.00
2023-06-14T23:01:34.925Z,100.00
2023-06-14T23:04:04.498Z,100.00
2023-06-14T23:06:35.498Z,100.00
2023-06-14T23:09:06.390Z,100.00
2023-06-14T23:11:35.308Z,100.00
2023-06-14T23:14:04.021Z,100.00
2023-06-14T23:16:33.300Z,100.00
2023-06-14T23:19:02.000Z,100.00
2023-06-14T23:21:31.764Z,100.00
2023-06-14T23:24:00.639Z,100.00
2023-06-14T23:26:30.059Z,100.00
2023-06-14T23:28:59.069Z,100.00
2023-06-14T23:31:28.161Z,100.00
2023-06-14T23:33:57.380Z,100.00
2023-06-14T23:36:32.480Z,100.00
2023-06-14T23:39:05.254Z,100.00
2023-06-14T23:41:34.388Z,100.00
2023-06-14T23:44:03.309Z,100.00
2023-06-14T23:46:33.076Z,100.00
2023-06-14T23:49:03.000Z,100.00
2023-06-14T23:51:32.708Z,100.00
2023-06-14T23:54:01.942Z,100.00
2023-06-14T23:56:33.635Z,100.00
2023-06-14T23:59:02.718Z,100.00
